Time;durP1;ratioP1;P1;durP2;ratioP2;P2;SDS_P1;SDS_P2;PMS_P1;PMS_P2;Temp;Humidity;BMP_temperature;BMP_pressure;BME280_temperature;BME280_humidity;BME280_pressure;Samples;Min_cycle;Max_cycle;Signal;HPM_P1;HPM_P2
2024/03/31 00:00:26;;;;;;;7.30;2.40;;;;;;;13.28;100.00;100098.85;87185;271;136815;-70
2024/03/31 00:02:27;;;;;;;3.20;2.10;;;;;;;13.28;100.00;100100.33;87150;271;22596;-70
2024/03/31 00:04:28;;;;;;;4.40;1.90;;;;;;;13.24;100.00;100094.77;87064;271;136552;-69
2024/03/31 00:06:28;;;;;;;2.70;1.80;;;;;;;13.26;100.00;100096.76;87252;270;22567;-71
2024/03/31 00:08:29;;;;;;;5.10;2.20;;;;;;;13.29;100.00;100094.30;87027;271;138234;-69
2024/03/31 00:10:30;;;;;;;5.10;2.60;;;;;;;13.20;100.00;100095.79;87332;263;23904;-70
2024/03/31 00:12:30;;;;;;;5.10;2.00;;;;;;;13.18;100.00;100097.60;87152;279;138162;-71
2024/03/31 00:14:32;;;;;;;2.00;1.50;;;;;;;13.15;100.00;100097.08;87212;278;23740;-70
2024/03/31 00:16:33;;;;;;;7.50;2.10;;;;;;;13.12;100.00;100095.73;86995;273;138012;-73
2024/03/31 00:18:33;;;;;;;7.70;2.40;;;;;;;13.03;100.00;100094.56;87123;276;25198;-70
2024/03/31 00:20:34;;;;;;;9.20;2.20;;;;;;;12.98;100.00;100095.64;87018;271;136939;-71
2024/03/31 00:22:34;;;;;;;6.10;2.20;;;;;;;13.01;100.00;100102.01;87229;267;27030;-71
2024/03/31 00:24:36;;;;;;;2.80;1.50;;;;;;;12.98;100.00;100104.00;86999;275;137221;-72
2024/03/31 00:26:36;;;;;;;5.90;2.30;;;;;;;12.98;100.00;100103.26;87216;278;26311;-74
2024/03/31 00:28:37;;;;;;;4.20;2.00;;;;;;;12.94;100.00;100107.59;87133;274;137538;-71
2024/03/31 00:30:38;;;;;;;6.80;2.90;;;;;;;12.89;100.00;100104.02;87199;272;22555;-72
2024/03/31 00:32:39;;;;;;;6.10;2.10;;;;;;;12.92;100.00;100106.49;87093;271;137041;-72
2024/03/31 00:34:39;;;;;;;7.60;1.80;;;;;;;12.84;100.00;100103.41;87325;270;25111;-71
2024/03/31 00:36:41;;;;;;;4.80;2.20;;;;;;;12.81;100.00;100111.48;87096;279;136997;-71
2024/03/31 00:38:42;;;;;;;8.80;1.40;;;;;;;12.79;100.00;100116.55;87232;275;22641;-71
2024/03/31 00:40:43;;;;;;;2.80;1.50;;;;;;;12.82;100.00;100109.39;87087;278;137077;-71
2024/03/31 00:42:44;;;;;;;8.70;2.00;;;;;;;12.78;100.00;100107.75;87089;268;22566;-71
2024/03/31 00:44:44;;;;;;;4.80;2.30;;;;;;;12.77;100.00;100105.00;87093;270;142197;-70
2024/03/31 00:46:45;;;;;;;6.30;2.40;;;;;;;12.74;100.00;100109.77;87343;275;22570;-71
2024/03/31 00:48:46;;;;;;;6.10;2.30;;;;;;;12.79;100.00;100109.84;87171;272;136816;-71
2024/03/31 00:50:47;;;;;;;4.00;1.90;;;;;;;12.75;100.00;100108.16;87208;279;22958;-69
2024/03/31 00:52:47;;;;;;;5.20;2.20;;;;;;;12.70;100.00;100105.54;87039;269;138638;-70
2024/03/31 00:54:48;;;;;;;8.60;2.50;;;;;;;12.67;100.00;100103.39;87166;280;24033;-70
2024/03/31 00:56:48;;;;;;;5.40;2.00;;;;;;;12.65;100.00;100104.70;87086;269;137416;-70
2024/03/31 00:58:49;;;;;;;5.50;2.10;;;;;;;12.66;100.00;100105.14;87239;278;22572;-69
2024/03/31 01:00:50;;;;;;;5.00;2.20;;;;;;;12.73;100.00;100098.58;87058;271;138402;-70
2024/03/31 01:02:51;;;;;;;6.60;2.40;;;;;;;12.70;100.00;100099.61;87186;267;22644;-71
2024/03/31 01:04:51;;;;;;;3.80;1.80;;;;;;;12.67;100.00;100103.27;87155;271;138111;-71
2024/03/31 01:06:52;;;;;;;7.90;2.30;;;;;;;12.67;100.00;100097.63;87257;271;22564;-72
2024/03/31 01:08:53;;;;;;;6.00;2.00;;;;;;;12.59;100.00;100097.73;87097;279;136775;-70
2024/03/31 01:10:54;;;;;;;7.40;2.80;;;;;;;12.52;100.00;100097.61;87377;274;24231;-70
2024/03/31 01:12:55;;;;;;;5.60;2.30;;;;;;;12.48;100.00;100095.15;87171;279;137187;-71
2024/03/31 01:14:58;;;;;;;4.00;2.00;;;;;;;12.44;100.00;100099.34;87207;269;22581;-69
2024/03/31 01:16:59;;;;;;;10.20;2.80;;;;;;;12.43;100.00;100101.94;87068;280;137926;-71
2024/03/31 01:19:00;;;;;;;3.70;2.60;;;;;;;12.45;100.00;100098.55;87082;282;24036;-72
2024/03/31 01:21:02;;;;;;;5.50;2.00;;;;;;;12.39;100.00;100105.31;87186;271;138766;-70
2024/03/31 01:23:04;;;;;;;7.60;2.50;;;;;;;12.36;100.00;100104.86;87316;271;22716;-72
2024/03/31 01:25:05;;;;;;;6.30;2.00;;;;;;;12.39;100.00;100105.89;87014;266;137134;-71
2024/03/31 01:27:06;;;;;;;5.30;2.30;;;;;;;12.38;100.00;100106.95;86486;272;706644;-70
2024/03/31 01:29:06;;;;;;;4.50;1.80;;;;;;;12.35;100.00;100107.52;86973;280;137525;-69
2024/03/31 01:31:07;;;;;;;6.80;2.60;;;;;;;12.36;100.00;100106.30;87204;264;22570;-70
2024/03/31 01:33:09;;;;;;;9.60;2.40;;;;;;;12.34;100.00;100107.33;86939;272;137712;-69
2024/03/31 01:35:09;;;;;;;4.20;2.00;;;;;;;12.35;100.00;100110.03;87219;271;23385;-71
2024/03/31 01:37:11;;;;;;;7.40;2.80;;;;;;;12.34;100.00;100111.76;87221;271;136623;-71
2024/03/31 01:39:14;;;;;;;6.60;2.30;;;;;;;12.37;100.00;100110.82;87250;270;24020;-70
2024/03/31 01:41:14;;;;;;;5.00;2.40;;;;;;;12.37;100.00;100114.96;87176;268;137190;-70
2024/03/31 01:43:15;;;;;;;5.70;2.00;;;;;;;12.36;100.00;100114.31;87205;279;23064;-71
2024/03/31 01:45:17;;;;;;;5.90;3.10;;;;;;;12.40;100.00;100114.23;87009;271;137992;-71
2024/03/31 01:47:17;;;;;;;4.40;2.70;;;;;;;12.36;100.00;100112.42;87299;271;25185;-72
2024/03/31 01:49:18;;;;;;;4.50;1.90;;;;;;;12.42;100.00;100112.22;87221;278;137761;-70
2024/03/31 01:51:19;;;;;;;4.50;2.40;;;;;;;12.41;100.00;100110.08;87260;278;22606;-69
2024/03/31 01:53:20;;;;;;;6.80;2.10;;;;;;;12.36;100.00;100110.77;87049;276;137772;-71
2024/03/31 01:55:20;;;;;;;7.90;2.70;;;;;;;12.34;100.00;100109.17;87208;272;24019;-70
2024/03/31 01:57:21;;;;;;;8.30;2.70;;;;;;;12.32;100.00;100111.48;86995;272;137266;-72
2024/03/31 01:59:22;;;;;;;8.60;2.80;;;;;;;12.29;100.00;100112.91;87068;280;24167;-69
2024/03/31 02:01:22;;;;;;;4.40;2.20;;;;;;;12.30;100.00;100114.98;87029;272;137174;-71
2024/03/31 02:03:23;;;;;;;8.50;4.60;;;;;;;12.29;100.00;100115.25;87240;274;22610;-70
2024/03/31 02:05:25;;;;;;;8.40;3.10;;;;;;;12.29;100.00;100121.70;86931;273;138350;-71
2024/03/31 02:07:27;;;;;;;5.60;2.30;;;;;;;12.37;100.00;100118.48;87023;280;22586;-71
2024/03/31 02:09:27;;;;;;;6.50;2.90;;;;;;;12.33;100.00;100123.02;87016;272;137234;-71
2024/03/31 02:11:28;;;;;;;5.10;2.30;;;;;;;12.23;100.00;100122.61;87114;271;24673;-70
2024/03/31 02:13:29;;;;;;;7.00;2.50;;;;;;;12.20;100.00;100126.42;87011;268;136630;-72
2024/03/31 02:15:29;;;;;;;5.80;2.60;;;;;;;12.02;100.00;100125.26;87088;272;25172;-71
2024/03/31 02:17:31;;;;;;;6.20;2.60;;;;;;;11.94;100.00;100128.42;87024;268;136400;-71
2024/03/31 02:19:31;;;;;;;6.80;3.60;;;;;;;11.92;100.00;100130.17;87312;271;22571;-71
2024/03/31 02:21:32;;;;;;;3.60;2.70;;;;;;;11.93;100.00;100129.80;87107;274;137345;-72
2024/03/31 02:23:33;;;;;;;7.30;3.20;;;;;;;11.94;100.00;100130.51;87217;263;26211;-70
2024/03/31 02:25:34;;;;;;;6.40;2.80;;;;;;;11.94;100.00;100130.34;87049;271;137504;-71
2024/03/31 02:27:35;;;;;;;9.00;3.30;;;;;;;11.94;100.00;100128.85;87283;272;22630;-69
2024/03/31 02:29:36;;;;;;;5.00;3.50;;;;;;;11.92;100.00;100124.80;87140;266;136819;-71
2024/03/31 02:31:37;;;;;;;8.20;3.10;;;;;;;11.92;100.00;100124.08;87338;271;22584;-70
2024/03/31 02:33:37;;;;;;;7.40;2.90;;;;;;;11.84;100.00;100125.31;87037;269;139514;-70
2024/03/31 02:35:39;;;;;;;5.60;2.80;;;;;;;11.80;100.00;100127.27;87100;264;23077;-70
2024/03/31 02:37:41;;;;;;;6.80;3.10;;;;;;;11.93;100.00;100124.67;87267;270;137043;-71
2024/03/31 02:39:41;;;;;;;4.10;2.10;;;;;;;11.93;100.00;100126.15;87251;279;23170;-69
2024/03/31 02:41:42;;;;;;;9.00;2.70;;;;;;;11.93;100.00;100124.23;87028;268;136877;-69
2024/03/31 02:43:43;;;;;;;4.00;3.10;;;;;;;11.92;100.00;100123.65;87164;279;22688;-69
2024/03/31 02:45:44;;;;;;;9.10;4.00;;;;;;;11.88;100.00;100123.69;87017;277;137115;-70
2024/03/31 02:47:45;;;;;;;6.90;3.00;;;;;;;11.92;100.00;100126.96;87094;268;26278;-70
2024/03/31 02:49:45;;;;;;;5.60;2.80;;;;;;;11.89;100.00;100127.89;87089;270;137211;-70
2024/03/31 02:51:46;;;;;;;8.10;3.30;;;;;;;11.79;100.00;100123.11;87265;270;23027;-70
2024/03/31 02:53:47;;;;;;;4.70;2.80;;;;;;;11.94;100.00;100124.70;87120;278;138258;-69
2024/03/31 02:55:47;;;;;;;8.60;3.80;;;;;;;12.01;100.00;100123.33;87068;271;22641;-70
2024/03/31 02:57:48;;;;;;;6.50;3.40;;;;;;;11.96;100.00;100123.52;87050;280;137251;-69
2024/03/31 02:59:49;;;;;;;5.50;3.10;;;;;;;11.97;100.00;100124.52;87369;270;22864;-69
2024/03/31 03:01:50;;;;;;;7.60;3.60;;;;;;;11.95;100.00;100122.61;87051;272;137218;-69
2024/03/31 03:03:51;;;;;;;5.60;2.70;;;;;;;11.98;100.00;100126.40;87298;279;22618;-70
2024/03/31 03:05:53;;;;;;;12.10;4.80;;;;;;;11.98;100.00;100129.83;87191;271;136648;-71
2024/03/31 03:07:54;;;;;;;9.30;4.00;;;;;;;11.95;100.00;100127.58;87219;271;23722;-69
2024/03/31 03:09:55;;;;;;;7.10;2.80;;;;;;;11.89;100.00;100129.34;87112;275;136595;-69
2024/03/31 03:11:56;;;;;;;8.70;3.20;;;;;;;11.88;100.00;100127.42;87184;276;22577;-71
2024/03/31 03:13:57;;;;;;;6.90;3.70;;;;;;;11.87;100.00;100127.76;87046;275;137727;-69
2024/03/31 03:16:03;;;;;;;10.80;2.90;;;;;;;11.85;100.00;100126.67;87175;280;22700;-69
2024/03/31 03:18:04;;;;;;;5.80;3.20;;;;;;;11.86;100.00;100130.08;87191;272;22579;-70
2024/03/31 03:20:05;;;;;;;8.80;3.60;;;;;;;11.84;100.00;100134.80;87118;280;137264;-71
2024/03/31 03:22:06;;;;;;;7.30;2.80;;;;;;;11.76;100.00;100130.10;87190;271;22570;-72
2024/03/31 03:24:07;;;;;;;5.30;3.50;;;;;;;11.75;100.00;100129.70;86900;274;137511;-72
2024/03/31 03:26:07;;;;;;;6.10;3.50;;;;;;;11.78;100.00;100128.02;87228;271;22578;-70
2024/03/31 03:28:08;;;;;;;8.30;3.00;;;;;;;11.79;100.00;100129.29;87102;267;138315;-69
2024/03/31 03:30:09;;;;;;;6.90;3.10;;;;;;;11.78;100.00;100130.81;87289;278;22547;-69
2024/03/31 03:32:11;;;;;;;9.10;3.50;;;;;;;11.82;100.00;100135.58;87146;271;138564;-71
2024/03/31 03:34:13;;;;;;;6.20;3.30;;;;;;;11.82;100.00;100134.61;87247;278;22571;-70
2024/03/31 03:36:14;;;;;;;10.60;3.80;;;;;;;11.81;100.00;100133.15;87151;270;137750;-69
2024/03/31 03:38:15;;;;;;;5.00;3.00;;;;;;;11.81;100.00;100134.96;87206;264;22712;-68
2024/03/31 03:40:16;;;;;;;8.50;3.40;;;;;;;11.77;100.00;100135.94;87120;271;138427;-68
2024/03/31 03:42:17;;;;;;;8.70;3.70;;;;;;;11.78;100.00;100136.19;87223;279;22721;-69
2024/03/31 03:44:18;;;;;;;7.00;3.80;;;;;;;11.75;100.00;100137.81;86958;272;137662;-68
2024/03/31 03:46:19;;;;;;;8.50;4.10;;;;;;;11.75;100.00;100139.05;87054;263;22633;-71
2024/03/31 03:48:20;;;;;;;10.40;3.40;;;;;;;11.72;100.00;100141.91;87163;276;139115;-69
2024/03/31 03:50:21;;;;;;;8.40;3.70;;;;;;;11.71;100.00;100142.70;87194;279;22559;-68
2024/03/31 03:52:22;;;;;;;6.30;3.30;;;;;;;11.72;100.00;100142.21;87237;274;137116;-70
2024/03/31 03:54:23;;;;;;;6.20;4.10;;;;;;;11.72;100.00;100144.67;87316;279;24023;-68
2024/03/31 03:56:23;;;;;;;7.30;3.70;;;;;;;11.73;100.00;100146.31;87151;263;137034;-70
2024/03/31 03:58:24;;;;;;;7.40;3.30;;;;;;;11.73;100.00;100149.52;87254;268;22560;-71
2024/03/31 04:00:25;;;;;;;7.60;3.60;;;;;;;11.71;100.00;100153.50;87061;269;138389;-71
2024/03/31 04:02:25;;;;;;;9.50;3.70;;;;;;;11.71;100.00;100151.77;87205;273;25175;-68
2024/03/31 04:04:26;;;;;;;14.20;4.10;;;;;;;11.70;100.00;100150.05;87097;270;136398;-71
2024/03/31 04:06:28;;;;;;;6.50;2.90;;;;;;;11.70;100.00;100148.16;86920;279;22572;-69
2024/03/31 04:08:28;;;;;;;12.30;3.10;;;;;;;11.68;100.00;100148.85;86732;272;136565;-69
2024/03/31 04:10:30;;;;;;;6.70;3.30;;;;;;;11.69;100.00;100147.37;86766;273;22567;-68
2024/03/31 04:12:31;;;;;;;6.50;3.00;;;;;;;11.68;100.00;100146.77;86880;279;137521;-69
2024/03/31 04:14:31;;;;;;;9.30;3.90;;;;;;;11.68;100.00;100146.92;87008;277;22575;-70
2024/03/31 04:16:32;;;;;;;12.10;4.00;;;;;;;11.68;100.00;100143.67;86850;268;138433;-68
2024/03/31 04:18:33;;;;;;;13.60;4.00;;;;;;;11.66;100.00;100142.73;87180;269;25275;-68
2024/03/31 04:20:41;;;;;;;7.00;3.90;;;;;;;11.62;100.00;100145.50;87056;271;137450;-71
2024/03/31 04:22:42;;;;;;;12.10;4.10;;;;;;;11.60;100.00;100153.55;87027;264;24136;-68
2024/03/31 04:24:42;;;;;;;6.50;3.80;;;;;;;11.59;100.00;100153.13;86918;276;138738;-68
2024/03/31 04:26:43;;;;;;;13.10;3.60;;;;;;;11.62;100.00;100154.33;87132;270;22898;-69
2024/03/31 04:28:44;;;;;;;8.00;3.20;;;;;;;11.65;100.00;100152.61;87014;277;137740;-68
2024/03/31 04:30:44;;;;;;;8.10;4.00;;;;;;;11.69;100.00;100154.44;86804;276;22549;-72
2024/03/31 04:32:45;;;;;;;6.80;3.70;;;;;;;11.73;100.00;100148.82;86907;270;138289;-67
2024/03/31 04:34:46;;;;;;;6.90;3.30;;;;;;;11.79;100.00;100148.80;86971;271;22574;-69
2024/03/31 04:36:49;;;;;;;4.80;3.50;;;;;;;11.81;100.00;100148.92;87130;263;137359;-68
2024/03/31 04:38:50;;;;;;;7.10;3.40;;;;;;;11.86;100.00;100152.57;87233;271;22739;-69
2024/03/31 04:40:57;;;;;;;5.50;4.30;;;;;;;11.95;100.00;100156.36;87044;278;138317;-68
2024/03/31 04:42:59;;;;;;;6.30;4.10;;;;;;;12.02;100.00;100158.52;87149;277;22563;-68
2024/03/31 04:45:01;;;;;;;12.40;3.90;;;;;;;12.10;100.00;100160.73;87083;262;137590;-69
2024/03/31 04:47:01;;;;;;;10.10;4.10;;;;;;;12.18;100.00;100162.98;87074;274;24023;-69
2024/03/31 04:49:05;;;;;;;7.10;3.50;;;;;;;12.26;100.00;100165.37;86973;276;137075;-70
2024/03/31 04:51:07;;;;;;;10.40;3.80;;;;;;;12.34;100.00;100166.17;87015;275;22563;-68
2024/03/31 04:53:08;;;;;;;10.50;4.50;;;;;;;12.39;100.00;100163.00;86797;276;138957;-67
2024/03/31 04:55:09;;;;;;;8.80;4.00;;;;;;;12.44;100.00;100165.89;86900;271;22576;-68
2024/03/31 04:57:10;;;;;;;15.50;4.90;;;;;;;12.49;100.00;100165.20;86841;277;136692;-70
2024/03/31 04:59:10;;;;;;;10.10;5.00;;;;;;;12.53;100.00;100164.83;86889;277;22587;-68
2024/03/31 05:01:11;;;;;;;7.80;4.60;;;;;;;12.58;100.00;100167.58;86874;271;137487;-68
2024/03/31 05:03:12;;;;;;;12.30;5.30;;;;;;;12.59;100.00;100167.00;87111;271;23725;-70
2024/03/31 05:05:13;;;;;;;7.60;3.60;;;;;;;12.59;100.00;100170.92;86859;263;140440;-68
2024/03/31 05:07:14;;;;;;;12.80;4.60;;;;;;;12.64;100.00;100169.22;86787;275;24014;-68
2024/03/31 05:09:14;;;;;;;12.20;4.30;;;;;;;12.71;100.00;100166.14;86726;274;138394;-69
2024/03/31 05:11:15;;;;;;;9.60;4.00;;;;;;;12.79;100.00;100166.95;86916;278;22731;-71
2024/03/31 05:13:16;;;;;;;8.40;4.00;;;;;;;12.83;100.00;100168.07;86729;281;137273;-69
2024/03/31 05:15:17;;;;;;;7.70;3.90;;;;;;;12.91;100.00;100164.84;87017;271;25351;-70
2024/03/31 05:17:17;;;;;;;8.30;3.50;;;;;;;13.01;100.00;100163.93;86834;271;137010;-70
2024/03/31 05:19:18;;;;;;;8.10;3.70;;;;;;;13.09;100.00;100163.45;87089;271;22567;-68
2024/03/31 05:21:19;;;;;;;11.30;4.40;;;;;;;13.11;100.00;100168.14;86909;278;137794;-69
2024/03/31 05:23:19;;;;;;;12.00;4.60;;;;;;;13.18;100.00;100163.31;87081;275;24013;-68
2024/03/31 05:25:21;;;;;;;12.50;4.50;;;;;;;13.26;100.00;100166.09;86928;271;137705;-69
2024/03/31 05:27:21;;;;;;;8.70;4.50;;;;;;;13.34;100.00;100165.41;86884;280;22665;-69
2024/03/31 05:30:39;;;;;;;11.10;4.80;;;;;;;13.35;100.00;100165.19;85047;303;603123;-68
2024/03/31 05:32:40;;;;;;;9.10;4.60;;;;;;;13.47;100.00;100164.21;86063;289;137524;-68
2024/03/31 05:34:54;;;;;;;14.90;5.00;;;;;;;13.59;100.00;100166.30;85981;293;23686;-71
2024/03/31 05:36:55;;;;;;;8.30;3.70;;;;;;;13.69;100.00;100167.21;85709;291;136377;-70
2024/03/31 05:38:56;;;;;;;6.70;4.10;;;;;;;13.79;100.00;100168.77;85878;295;22601;-70
2024/03/31 05:40:57;;;;;;;14.00;5.20;;;;;;;13.94;100.00;100165.70;85982;286;136842;-67
2024/03/31 05:42:57;;;;;;;9.40;4.00;;;;;;;14.08;100.00;100166.38;86246;285;22683;-69
2024/03/31 05:44:58;;;;;;;13.40;5.30;;;;;;;14.15;100.00;100165.92;85729;287;669048;-70
2024/03/31 05:46:59;;;;;;;9.40;4.20;;;;;;;14.12;100.00;100157.01;86341;271;22596;-69
2024/03/31 05:49:00;;;;;;;8.80;4.10;;;;;;;14.08;100.00;100161.80;86320;279;136509;-68
2024/03/31 05:51:04;;;;;;;8.20;4.10;;;;;;;14.08;100.00;100157.39;86710;283;22651;-70
2024/03/31 05:53:06;;;;;;;13.20;5.10;;;;;;;14.14;100.00;100155.92;86277;284;136637;-69
2024/03/31 05:55:07;;;;;;;11.70;4.90;;;;;;;14.33;100.00;100158.52;86309;286;22640;-71
2024/03/31 05:57:08;;;;;;;7.40;4.80;;;;;;;14.48;99.46;100161.52;86644;277;136666;-69
2024/03/31 05:59:09;;;;;;;9.90;5.30;;;;;;;14.44;99.86;100163.55;86670;276;25540;-71
2024/03/31 06:01:11;;;;;;;9.80;3.80;;;;;;;14.40;99.89;100167.17;86537;277;136655;-70
2024/03/31 06:03:11;;;;;;;15.70;4.70;;;;;;;14.52;99.35;100173.42;86659;285;24216;-69
2024/03/31 06:05:12;;;;;;;10.60;3.60;;;;;;;14.65;98.14;100170.67;86425;284;137799;-70
2024/03/31 06:07:13;;;;;;;12.20;4.60;;;;;;;14.74;97.39;100173.90;86720;271;22674;-69
2024/03/31 06:09:14;;;;;;;12.30;4.60;;;;;;;14.78;96.78;100171.27;86544;268;137779;-70
2024/03/31 06:11:15;;;;;;;11.10;4.40;;;;;;;14.83;96.08;100173.27;86668;274;25112;-70
2024/03/31 06:13:16;;;;;;;23.00;6.20;;;;;;;14.91;96.18;100174.81;86605;276;138632;-70
2024/03/31 06:15:16;;;;;;;12.50;5.40;;;;;;;15.07;96.16;100177.34;86345;282;22586;-70
2024/03/31 06:17:19;;;;;;;8.70;3.90;;;;;;;15.38;93.36;100179.01;86425;280;138016;-71
2024/03/31 06:19:20;;;;;;;9.50;4.80;;;;;;;15.54;91.89;100178.20;89322;286;23015;-69
2024/03/31 06:21:21;;;;;;;9.60;3.90;;;;;;;15.67;90.99;100176.31;89482;276;136046;-70
2024/03/31 06:23:21;;;;;;;9.60;4.70;;;;;;;15.79;89.68;100177.40;89553;281;22431;-73
2024/03/31 06:25:22;;;;;;;17.00;5.50;;;;;;;15.90;89.08;100178.63;89379;281;135924;-70
2024/03/31 06:27:23;;;;;;;11.40;5.00;;;;;;;16.00;88.34;100176.37;89426;281;22354;-69
2024/03/31 06:29:24;;;;;;;14.90;5.10;;;;;;;16.07;87.22;100174.24;89320;272;135758;-71
2024/03/31 06:31:25;;;;;;;10.70;3.80;;;;;;;16.02;86.76;100175.88;88902;281;25002;-69
2024/03/31 06:33:27;;;;;;;8.80;5.20;;;;;;;15.91;87.26;100173.18;86823;280;137518;-71
2024/03/31 06:35:28;;;;;;;10.90;5.10;;;;;;;15.84;88.15;100167.86;86765;273;24151;-73
2024/03/31 06:37:29;;;;;;;13.60;4.70;;;;;;;15.78;88.10;100167.56;86625;277;136242;-73
2024/03/31 06:39:31;;;;;;;13.80;6.30;;;;;;;15.73;88.58;100168.11;86839;273;22608;-73
2024/03/31 06:41:32;;;;;;;17.70;5.60;;;;;;;15.70;88.74;100171.23;86710;284;136010;-72
2024/03/31 06:43:33;;;;;;;16.10;6.40;;;;;;;15.70;89.04;100179.51;86891;273;23741;-75
2024/03/31 06:45:33;;;;;;;14.40;5.50;;;;;;;15.74;89.42;100181.09;86769;280;136727;-75
2024/03/31 06:47:34;;;;;;;10.10;4.10;;;;;;;15.88;89.47;100183.30;86815;276;22687;-73
2024/03/31 06:49:36;;;;;;;14.80;5.60;;;;;;;16.12;87.80;100186.95;86841;275;137560;-74
2024/03/31 06:51:37;;;;;;;11.70;5.80;;;;;;;16.28;86.71;100189.26;86801;285;26220;-75
2024/03/31 06:53:38;;;;;;;15.70;5.50;;;;;;;16.39;85.70;100192.05;86797;275;136619;-73
2024/03/31 06:55:42;;;;;;;10.90;4.90;;;;;;;16.19;86.75;100185.59;86805;277;23741;-76
2024/03/31 06:57:43;;;;;;;14.10;6.10;;;;;;;16.24;86.12;100182.52;86868;272;136876;-74
2024/03/31 06:59:45;;;;;;;12.30;5.80;;;;;;;16.03;87.48;100181.79;86802;280;22686;-73
2024/03/31 07:01:46;;;;;;;14.90;5.60;;;;;;;15.92;87.86;100182.02;86554;276;137237;-73
2024/03/31 07:03:46;;;;;;;16.30;5.30;;;;;;;15.85;88.82;100180.70;86562;271;24142;-75
2024/03/31 07:05:47;;;;;;;9.20;4.70;;;;;;;15.77;89.39;100180.96;87572;267;136893;-76
2024/03/31 07:07:48;;;;;;;10.20;4.20;;;;;;;15.72;90.21;100182.38;86798;276;22570;-75
2024/03/31 07:09:49;;;;;;;18.30;6.00;;;;;;;15.73;90.67;100179.77;86799;274;137067;-75
2024/03/31 07:11:50;;;;;;;13.60;5.90;;;;;;;15.78;90.59;100181.79;86906;274;22646;-75
2024/03/31 07:13:51;;;;;;;13.40;5.90;;;;;;;15.81;90.01;100178.48;86899;275;137376;-75
2024/03/31 07:15:51;;;;;;;14.90;4.80;;;;;;;15.81;90.06;100177.70;86754;276;22552;-73
2024/03/31 07:17:53;;;;;;;8.50;4.40;;;;;;;15.85;90.27;100175.54;86668;272;136785;-74
2024/03/31 07:19:53;;;;;;;14.20;5.10;;;;;;;15.90;90.03;100174.73;86824;284;24078;-77
2024/03/31 07:21:54;;;;;;;13.80;4.60;;;;;;;16.00;89.53;100176.10;86832;282;136134;-75
2024/03/31 07:23:55;;;;;;;11.60;4.00;;;;;;;16.01;89.49;100170.90;86750;271;25729;-72
2024/03/31 07:25:59;;;;;;;13.80;4.20;;;;;;;16.12;88.85;100172.23;86659;275;136548;-76
2024/03/31 07:28:01;;;;;;;8.30;4.70;;;;;;;16.16;88.92;100171.67;86790;267;26258;-73
2024/03/31 07:30:02;;;;;;;16.40;6.30;;;;;;;16.13;88.68;100171.67;86799;270;135656;-74
2024/03/31 07:32:03;;;;;;;13.20;4.70;;;;;;;16.29;88.46;100176.73;86860;284;136902;-72
2024/03/31 07:34:04;;;;;;;13.10;4.80;;;;;;;16.38;88.12;100180.79;86728;272;22583;-75
2024/03/31 07:36:05;;;;;;;10.90;4.60;;;;;;;16.45;88.06;100179.79;86798;272;136552;-74
2024/03/31 07:38:06;;;;;;;13.60;5.00;;;;;;;16.52;87.04;100184.09;86922;270;26159;-74
2024/03/31 07:40:07;;;;;;;10.90;4.50;;;;;;;16.59;86.39;100188.85;86811;278;136379;-73
2024/03/31 07:42:09;;;;;;;12.50;5.00;;;;;;;16.61;86.70;100186.10;86603;279;23745;-75
2024/03/31 07:44:09;;;;;;;14.10;5.20;;;;;;;16.73;86.96;100189.19;86697;275;136260;-74
2024/03/31 07:46:10;;;;;;;13.40;5.10;;;;;;;16.85;86.30;100188.58;86738;284;22571;-75
2024/03/31 07:48:11;;;;;;;12.10;4.50;;;;;;;17.01;85.45;100188.42;86686;275;137386;-73
2024/03/31 07:50:12;;;;;;;13.50;4.60;;;;;;;17.15;84.88;100191.86;86693;276;23629;-73
2024/03/31 07:52:12;;;;;;;12.20;5.00;;;;;;;17.22;84.07;100190.77;86643;279;136949;-74
2024/03/31 07:54:13;;;;;;;11.50;4.30;;;;;;;17.38;83.08;100188.42;86777;275;22579;-74
2024/03/31 07:56:14;;;;;;;11.80;4.30;;;;;;;17.44;82.37;100186.35;86658;274;136335;-73
2024/03/31 07:58:14;;;;;;;18.80;4.50;;;;;;;17.47;81.92;100186.95;86594;275;22138;-75
2024/03/31 08:00:15;;;;;;;15.00;4.40;;;;;;;17.49;82.31;100185.38;86583;271;136540;-77
2024/03/31 08:02:16;;;;;;;12.80;4.60;;;;;;;17.57;81.91;100185.36;86669;279;23096;-78
2024/03/31 08:04:16;;;;;;;15.50;5.50;;;;;;;17.63;81.66;100179.72;86683;272;137771;-73
2024/03/31 08:06:17;;;;;;;19.10;4.10;;;;;;;17.69;81.31;100179.54;86680;274;24238;-74
2024/03/31 08:08:18;;;;;;;16.30;3.90;;;;;;;17.76;80.41;100176.13;86585;271;136785;-74
2024/03/31 08:10:18;;;;;;;13.30;4.10;;;;;;;17.80;80.83;100175.79;86863;282;24014;-78
2024/03/31 08:12:19;;;;;;;11.60;4.20;;;;;;;17.90;80.01;100172.20;86641;282;136823;-74
2024/03/31 08:14:19;;;;;;;9.80;3.70;;;;;;;18.00;79.60;100171.77;86644;279;22606;-81
2024/03/31 08:16:20;;;;;;;11.80;4.20;;;;;;;18.10;79.05;100167.00;86561;271;137143;-73
2024/03/31 08:18:21;;;;;;;20.20;4.60;;;;;;;18.20;78.85;100171.77;86668;271;22441;-75
2024/03/31 08:20:21;;;;;;;14.00;3.90;;;;;;;18.35;78.26;100164.63;86660;270;136200;-72
2024/03/31 08:22:22;;;;;;;19.20;4.50;;;;;;;18.41;77.66;100167.48;86817;275;22577;-73
2024/03/31 08:24:23;;;;;;;20.40;4.40;;;;;;;18.46;76.87;100166.48;86673;275;137477;-72
2024/03/31 08:26:23;;;;;;;15.60;4.70;;;;;;;18.52;77.23;100166.27;86747;282;22560;-74
2024/03/31 08:28:24;;;;;;;10.80;4.20;;;;;;;18.61;76.26;100166.58;86656;282;136240;-73
2024/03/31 08:30:25;;;;;;;11.60;4.30;;;;;;;18.72;76.06;100160.48;86745;274;25131;-72
2024/03/31 08:32:25;;;;;;;12.00;4.00;;;;;;;18.83;75.99;100162.24;86821;280;135896;-72
2024/03/31 08:34:26;;;;;;;16.50;4.60;;;;;;;18.95;74.87;100159.02;86896;268;22562;-73
2024/03/31 08:36:27;;;;;;;12.20;4.20;;;;;;;19.00;74.78;100162.49;86894;272;135757;-76
2024/03/31 08:38:28;;;;;;;12.40;4.50;;;;;;;19.00;74.87;100155.46;87025;272;22519;-75
2024/03/31 08:40:31;;;;;;;12.10;4.10;;;;;;;19.09;74.98;100158.12;86843;272;136176;-73
2024/03/31 08:42:43;;;;;;;18.20;4.20;;;;;;;19.25;73.64;100154.45;87150;280;23776;-75
2024/03/31 08:44:47;;;;;;;14.60;3.80;;;;;;;19.37;72.97;100153.86;86831;273;136220;-74
2024/03/31 08:46:49;;;;;;;12.50;4.40;;;;;;;19.45;72.01;100152.33;87049;276;26208;-72
2024/03/31 08:48:50;;;;;;;10.30;3.40;;;;;;;19.54;72.00;100150.55;86847;272;137498;-74
2024/03/31 08:50:51;;;;;;;15.50;4.50;;;;;;;19.58;71.41;100156.42;87038;279;23737;-75
2024/03/31 08:52:52;;;;;;;13.20;3.90;;;;;;;19.63;70.85;100153.67;86846;272;138941;-73
2024/03/31 08:54:57;;;;;;;14.20;4.80;;;;;;;19.56;71.03;100151.75;87008;272;23735;-74
2024/03/31 08:56:58;;;;;;;;;;;;;;;19.54;71.43;100146.64;87088;279;135839;-73
2024/03/31 08:59:02;;;;;;;12.30;4.00;;;;;;;19.70;71.59;100144.00;87062;268;22562;-73
2024/03/31 09:01:03;;;;;;;7.00;3.60;;;;;;;19.82;71.11;100147.10;87007;272;136244;-74
2024/03/31 09:03:04;;;;;;;18.10;4.10;;;;;;;19.94;71.11;100146.20;86972;271;22987;-72
2024/03/31 09:05:06;;;;;;;13.50;3.70;;;;;;;20.01;69.08;100144.75;86907;273;136315;-73
2024/03/31 09:07:06;;;;;;;14.60;4.80;;;;;;;20.05;69.35;100148.24;87000;272;22839;-71
2024/03/31 09:09:07;;;;;;;14.00;4.20;;;;;;;20.07;68.97;100147.03;86913;267;138003;-72
2024/03/31 09:11:09;;;;;;;10.80;3.10;;;;;;;20.12;68.61;100150.33;87016;276;25481;-75
2024/03/31 09:13:10;;;;;;;15.30;4.60;;;;;;;20.15;68.66;100147.10;86852;276;136419;-73
2024/03/31 09:15:11;;;;;;;6.40;3.00;;;;;;;20.18;68.25;100144.42;86991;272;25217;-74
2024/03/31 09:17:13;;;;;;;8.10;2.60;;;;;;;20.17;67.57;100143.54;86922;268;135922;-73
2024/03/31 09:19:14;;;;;;;19.10;4.20;;;;;;;20.13;67.72;100140.15;86990;268;25255;-73
2024/03/31 09:21:15;;;;;;;14.50;4.00;;;;;;;20.09;68.04;100140.06;86950;268;136174;-73